sensor_id;sensor_type;location;lat;lon;timestamp;P1;durP1;ratioP1;P2;durP2;ratioP2
49998;SDS011;68071;45.062;7.356;2023-05-07T00:01:14;2.33;;;2.13;;
49998;SDS011;68071;45.062;7.356;2023-05-07T00:04:18;2.50;;;2.30;;
49998;SDS011;68071;45.062;7.356;2023-05-07T00:07:22;3.15;;;2.53;;
49998;SDS011;68071;45.062;7.356;2023-05-07T00:10:26;2.63;;;1.88;;
49998;SDS011;68071;45.062;7.356;2023-05-07T00:13:30;2.08;;;1.88;;
49998;SDS011;68071;45.062;7.356;2023-05-07T00:16:38;2.13;;;1.83;;
49998;SDS011;68071;45.062;7.356;2023-05-07T00:19:42;3.05;;;1.80;;
49998;SDS011;68071;45.062;7.356;2023-05-07T00:22:46;3.65;;;2.20;;
49998;SDS011;68071;45.062;7.356;2023-05-07T00:25:50;2.20;;;1.90;;
49998;SDS011;68071;45.062;7.356;2023-05-07T00:28:54;2.83;;;2.28;;
49998;SDS011;68071;45.062;7.356;2023-05-07T00:31:58;2.17;;;1.70;;
49998;SDS011;68071;45.062;7.356;2023-05-07T00:35:02;1.80;;;1.70;;
49998;SDS011;68071;45.062;7.356;2023-05-07T00:38:07;3.22;;;2.50;;
49998;SDS011;68071;45.062;7.356;2023-05-07T00:41:11;2.70;;;2.05;;
49998;SDS011;68071;45.062;7.356;2023-05-07T00:44:15;2.97;;;1.70;;
49998;SDS011;68071;45.062;7.356;2023-05-07T00:47:19;2.40;;;1.92;;
49998;SDS011;68071;45.062;7.356;2023-05-07T00:50:23;3.08;;;1.80;;
49998;SDS011;68071;45.062;7.356;2023-05-07T00:53:27;2.35;;;1.70;;
49998;SDS011;68071;45.062;7.356;2023-05-07T00:56:32;2.25;;;1.88;;
49998;SDS011;68071;45.062;7.356;2023-05-07T00:59:36;2.08;;;1.88;;
49998;SDS011;68071;45.062;7.356;2023-05-07T01:02:39;2.50;;;2.13;;
49998;SDS011;68071;45.062;7.356;2023-05-07T01:05:43;3.38;;;1.85;;
49998;SDS011;68071;45.062;7.356;2023-05-07T01:08:50;2.03;;;1.63;;
49998;SDS011;68071;45.062;7.356;2023-05-07T01:11:56;2.20;;;2.00;;
49998;SDS011;68071;45.062;7.356;2023-05-07T01:15:02;2.20;;;2.00;;
49998;SDS011;68071;45.062;7.356;2023-05-07T01:18:07;2.05;;;1.67;;
49998;SDS011;68071;45.062;7.356;2023-05-07T01:21:13;2.22;;;1.90;;
49998;SDS011;68071;45.062;7.356;2023-05-07T01:24:21;1.70;;;1.60;;
49998;SDS011;68071;45.062;7.356;2023-05-07T01:27:26;2.40;;;2.00;;
49998;SDS011;68071;45.062;7.356;2023-05-07T01:30:30;2.75;;;2.20;;
49998;SDS011;68071;45.062;7.356;2023-05-07T01:36:42;3.47;;;1.85;;
49998;SDS011;68071;45.062;7.356;2023-05-07T01:42:51;2.42;;;2.20;;
49998;SDS011;68071;45.062;7.356;2023-05-07T01:45:57;3.13;;;2.38;;
49998;SDS011;68071;45.062;7.356;2023-05-07T01:49:02;2.40;;;2.03;;
49998;SDS011;68071;45.062;7.356;2023-05-07T01:52:06;2.25;;;1.95;;
49998;SDS011;68071;45.062;7.356;2023-05-07T01:55:10;2.15;;;1.80;;
49998;SDS011;68071;45.062;7.356;2023-05-07T01:58:14;3.78;;;2.30;;
49998;SDS011;68071;45.062;7.356;2023-05-07T02:01:19;3.17;;;2.72;;
49998;SDS011;68071;45.062;7.356;2023-05-07T02:04:23;2.47;;;2.28;;
49998;SDS011;68071;45.062;7.356;2023-05-07T02:07:28;3.30;;;2.80;;
49998;SDS011;68071;45.062;7.356;2023-05-07T02:10:33;3.08;;;2.58;;
49998;SDS011;68071;45.062;7.356;2023-05-07T02:13:37;3.40;;;3.10;;
49998;SDS011;68071;45.062;7.356;2023-05-07T02:16:41;5.30;;;2.50;;
49998;SDS011;68071;45.062;7.356;2023-05-07T02:22:51;3.50;;;3.08;;
49998;SDS011;68071;45.062;7.356;2023-05-07T02:25:55;2.97;;;2.70;;
49998;SDS011;68071;45.062;7.356;2023-05-07T02:28:59;2.53;;;2.15;;
49998;SDS011;68071;45.062;7.356;2023-05-07T02:32:03;2.45;;;2.25;;
49998;SDS011;68071;45.062;7.356;2023-05-07T02:35:07;3.28;;;2.50;;
49998;SDS011;68071;45.062;7.356;2023-05-07T02:38:11;2.63;;;2.40;;
49998;SDS011;68071;45.062;7.356;2023-05-07T02:41:17;2.60;;;2.40;;
49998;SDS011;68071;45.062;7.356;2023-05-07T02:44:20;2.40;;;2.17;;
49998;SDS011;68071;45.062;7.356;2023-05-07T02:47:27;2.38;;;2.17;;
49998;SDS011;68071;45.062;7.356;2023-05-07T02:50:32;2.30;;;2.05;;
49998;SDS011;68071;45.062;7.356;2023-05-07T02:53:36;2.88;;;2.33;;
49998;SDS011;68071;45.062;7.356;2023-05-07T02:56:40;3.58;;;2.25;;
49998;SDS011;68071;45.062;7.356;2023-05-07T02:59:44;2.50;;;2.30;;
49998;SDS011;68071;45.062;7.356;2023-05-07T03:02:50;2.10;;;1.90;;
49998;SDS011;68071;45.062;7.356;2023-05-07T03:05:54;2.92;;;2.30;;
49998;SDS011;68071;45.062;7.356;2023-05-07T03:08:58;2.20;;;2.00;;
49998;SDS011;68071;45.062;7.356;2023-05-07T03:12:02;2.42;;;2.10;;
49998;SDS011;68071;45.062;7.356;2023-05-07T03:15:06;2.67;;;2.10;;
49998;SDS011;68071;45.062;7.356;2023-05-07T03:18:11;2.42;;;2.22;;
49998;SDS011;68071;45.062;7.356;2023-05-07T03:21:16;3.13;;;1.95;;
49998;SDS011;68071;45.062;7.356;2023-05-07T03:24:20;2.63;;;2.40;;
49998;SDS011;68071;45.062;7.356;2023-05-07T03:27:24;2.72;;;2.30;;
49998;SDS011;68071;45.062;7.356;2023-05-07T03:30:30;2.78;;;2.58;;
49998;SDS011;68071;45.062;7.356;2023-05-07T03:33:34;3.58;;;2.90;;
49998;SDS011;68071;45.062;7.356;2023-05-07T03:36:38;2.67;;;2.47;;
49998;SDS011;68071;45.062;7.356;2023-05-07T03:39:45;2.92;;;2.63;;
49998;SDS011;68071;45.062;7.356;2023-05-07T03:42:50;3.50;;;3.20;;
49998;SDS011;68071;45.062;7.356;2023-05-07T03:45:56;3.28;;;2.92;;
49998;SDS011;68071;45.062;7.356;2023-05-07T03:49:03;3.63;;;2.90;;
49998;SDS011;68071;45.062;7.356;2023-05-07T03:52:07;3.40;;;3.10;;
49998;SDS011;68071;45.062;7.356;2023-05-07T03:55:12;3.40;;;2.75;;
49998;SDS011;68071;45.062;7.356;2023-05-07T03:58:19;3.95;;;2.88;;
49998;SDS011;68071;45.062;7.356;2023-05-07T04:01:24;3.28;;;2.97;;
49998;SDS011;68071;45.062;7.356;2023-05-07T04:04:28;4.20;;;3.90;;
49998;SDS011;68071;45.062;7.356;2023-05-07T04:07:38;4.38;;;3.78;;
49998;SDS011;68071;45.062;7.356;2023-05-07T04:10:42;5.90;;;5.40;;
49998;SDS011;68071;45.062;7.356;2023-05-07T04:13:48;4.70;;;4.30;;
49998;SDS011;68071;45.062;7.356;2023-05-07T04:16:57;4.88;;;4.47;;
49998;SDS011;68071;45.062;7.356;2023-05-07T04:20:01;4.80;;;4.40;;
49998;SDS011;68071;45.062;7.356;2023-05-07T04:23:07;4.63;;;4.22;;
49998;SDS011;68071;45.062;7.356;2023-05-07T04:26:13;4.65;;;4.22;;
49998;SDS011;68071;45.062;7.356;2023-05-07T04:29:19;4.63;;;4.18;;
49998;SDS011;68071;45.062;7.356;2023-05-07T04:32:24;5.97;;;5.43;;
49998;SDS011;68071;45.062;7.356;2023-05-07T04:35:30;4.45;;;4.05;;
49998;SDS011;68071;45.062;7.356;2023-05-07T04:38:35;4.35;;;3.22;;
49998;SDS011;68071;45.062;7.356;2023-05-07T04:41:41;4.90;;;4.40;;
49998;SDS011;68071;45.062;7.356;2023-05-07T04:44:46;4.95;;;4.20;;
49998;SDS011;68071;45.062;7.356;2023-05-07T04:47:49;4.07;;;3.78;;
49998;SDS011;68071;45.062;7.356;2023-05-07T04:50:53;5.30;;;4.28;;
49998;SDS011;68071;45.062;7.356;2023-05-07T04:53:58;6.50;;;4.90;;
49998;SDS011;68071;45.062;7.356;2023-05-07T04:57:05;5.38;;;4.97;;
49998;SDS011;68071;45.062;7.356;2023-05-07T05:00:09;5.57;;;5.07;;
49998;SDS011;68071;45.062;7.356;2023-05-07T05:03:15;4.78;;;4.38;;
49998;SDS011;68071;45.062;7.356;2023-05-07T05:06:20;5.20;;;4.70;;
49998;SDS011;68071;45.062;7.356;2023-05-07T05:09:24;5.80;;;5.18;;
49998;SDS011;68071;45.062;7.356;2023-05-07T05:12:29;5.20;;;4.70;;
49998;SDS011;68071;45.062;7.356;2023-05-07T05:15:37;5.15;;;4.50;;
49998;SDS011;68071;45.062;7.356;2023-05-07T05:18:41;7.40;;;4.05;;
49998;SDS011;68071;45.062;7.356;2023-05-07T05:24:50;5.75;;;5.03;;
49998;SDS011;68071;45.062;7.356;2023-05-07T05:27:55;6.40;;;5.63;;
49998;SDS011;68071;45.062;7.356;2023-05-07T05:31:00;8.32;;;7.53;;
49998;SDS011;68071;45.062;7.356;2023-05-07T05:34:08;6.70;;;5.68;;
49998;SDS011;68071;45.062;7.356;2023-05-07T05:37:14;6.93;;;6.07;;
49998;SDS011;68071;45.062;7.356;2023-05-07T05:40:18;7.10;;;6.50;;
49998;SDS011;68071;45.062;7.356;2023-05-07T05:43:22;6.35;;;5.63;;
49998;SDS011;68071;45.062;7.356;2023-05-07T05:46:27;6.63;;;6.03;;
49998;SDS011;68071;45.062;7.356;2023-05-07T05:49:31;5.65;;;5.10;;
49998;SDS011;68071;45.062;7.356;2023-05-07T05:52:36;6.33;;;5.73;;
49998;SDS011;68071;45.062;7.356;2023-05-07T05:55:41;5.45;;;5.05;;
49998;SDS011;68071;45.062;7.356;2023-05-07T05:58:46;6.50;;;5.95;;
49998;SDS011;68071;45.062;7.356;2023-05-07T06:01:51;7.30;;;6.70;;
49998;SDS011;68071;45.062;7.356;2023-05-07T06:04:54;8.30;;;7.40;;
49998;SDS011;68071;45.062;7.356;2023-05-07T06:08:00;7.28;;;6.57;;
49998;SDS011;68071;45.062;7.356;2023-05-07T06:11:08;7.32;;;6.63;;
49998;SDS011;68071;45.062;7.356;2023-05-07T06:14:15;6.95;;;6.35;;
49998;SDS011;68071;45.062;7.356;2023-05-07T06:17:20;7.65;;;6.82;;
49998;SDS011;68071;45.062;7.356;2023-05-07T06:20:24;6.78;;;6.07;;
49998;SDS011;68071;45.062;7.356;2023-05-07T06:23:28;6.22;;;5.68;;
49998;SDS011;68071;45.062;7.356;2023-05-07T06:26:32;6.18;;;5.60;;
49998;SDS011;68071;45.062;7.356;2023-05-07T06:29:39;6.20;;;5.60;;
49998;SDS011;68071;45.062;7.356;2023-05-07T06:32:49;5.90;;;5.38;;
49998;SDS011;68071;45.062;7.356;2023-05-07T06:35:53;5.60;;;5.10;;
49998;SDS011;68071;45.062;7.356;2023-05-07T06:38:58;5.55;;;5.05;;
49998;SDS011;68071;45.062;7.356;2023-05-07T06:42:02;6.35;;;5.82;;
49998;SDS011;68071;45.062;7.356;2023-05-07T06:45:10;7.40;;;5.70;;
49998;SDS011;68071;45.062;7.356;2023-05-07T06:48:14;5.38;;;4.97;;
49998;SDS011;68071;45.062;7.356;2023-05-07T06:51:32;6.53;;;5.82;;
49998;SDS011;68071;45.062;7.356;2023-05-07T06:54:39;6.63;;;6.05;;
49998;SDS011;68071;45.062;7.356;2023-05-07T06:57:44;7.30;;;6.70;;
49998;SDS011;68071;45.062;7.356;2023-05-07T07:00:49;7.32;;;6.68;;
49998;SDS011;68071;45.062;7.356;2023-05-07T07:03:53;7.88;;;7.18;;
49998;SDS011;68071;45.062;7.356;2023-05-07T07:06:59;7.82;;;7.13;;
49998;SDS011;68071;45.062;7.356;2023-05-07T07:10:03;9.23;;;8.32;;
49998;SDS011;68071;45.062;7.356;2023-05-07T07:13:08;8.00;;;7.30;;
49998;SDS011;68071;45.062;7.356;2023-05-07T07:16:13;8.70;;;7.88;;
49998;SDS011;68071;45.062;7.356;2023-05-07T07:19:16;8.02;;;7.22;;
49998;SDS011;68071;45.062;7.356;2023-05-07T07:22:22;7.15;;;6.50;;
49998;SDS011;68071;45.062;7.356;2023-05-07T07:25:26;7.78;;;7.00;;
49998;SDS011;68071;45.062;7.356;2023-05-07T07:28:30;7.53;;;6.82;;
49998;SDS011;68071;45.062;7.356;2023-05-07T07:31:34;7.97;;;7.28;;
49998;SDS011;68071;45.062;7.356;2023-05-07T07:34:38;8.30;;;7.60;;
49998;SDS011;68071;45.062;7.356;2023-05-07T07:37:44;8.27;;;7.57;;
49998;SDS011;68071;45.062;7.356;2023-05-07T07:40:50;8.57;;;7.78;;
49998;SDS011;68071;45.062;7.356;2023-05-07T07:43:55;8.63;;;7.93;;
49998;SDS011;68071;45.062;7.356;2023-05-07T07:46:58;8.00;;;7.30;;
49998;SDS011;68071;45.062;7.356;2023-05-07T07:53:09;10.63;;;7.68;;
49998;SDS011;68071;45.062;7.356;2023-05-07T07:56:13;7.22;;;6.60;;
49998;SDS011;68071;45.062;7.356;2023-05-07T07:59:17;8.30;;;7.50;;
49998;SDS011;68071;45.062;7.356;2023-05-07T08:02:23;7.75;;;7.05;;
49998;SDS011;68071;45.062;7.356;2023-05-07T08:05:28;8.73;;;7.93;;
49998;SDS011;68071;45.062;7.356;2023-05-07T08:08:32;7.55;;;6.88;;
49998;SDS011;68071;45.062;7.356;2023-05-07T08:11:37;8.98;;;8.18;;
49998;SDS011;68071;45.062;7.356;2023-05-07T08:14:42;8.40;;;7.70;;
49998;SDS011;68071;45.062;7.356;2023-05-07T08:17:47;8.57;;;7.78;;
49998;SDS011;68071;45.062;7.356;2023-05-07T08:20:51;8.82;;;8.02;;
49998;SDS011;68071;45.062;7.356;2023-05-07T08:23:59;8.30;;;7.60;;
49998;SDS011;68071;45.062;7.356;2023-05-07T08:27:03;8.27;;;7.57;;
49998;SDS011;68071;45.062;7.356;2023-05-07T08:30:08;7.90;;;7.20;;
49998;SDS011;68071;45.062;7.356;2023-05-07T08:33:13;7.47;;;6.80;;
49998;SDS011;68071;45.062;7.356;2023-05-07T08:36:17;10.88;;;10.07;;
49998;SDS011;68071;45.062;7.356;2023-05-07T08:39:23;9.40;;;8.48;;
49998;SDS011;68071;45.062;7.356;2023-05-07T08:42:29;8.38;;;7.57;;
49998;SDS011;68071;45.062;7.356;2023-05-07T08:45:35;8.90;;;8.05;;
49998;SDS011;68071;45.062;7.356;2023-05-07T08:48:45;9.35;;;8.45;;
49998;SDS011;68071;45.062;7.356;2023-05-07T08:51:52;8.77;;;8.00;;
49998;SDS011;68071;45.062;7.356;2023-05-07T08:54:58;8.13;;;7.32;;
49998;SDS011;68071;45.062;7.356;2023-05-07T08:58:03;8.82;;;8.02;;
49998;SDS011;68071;45.062;7.356;2023-05-07T09:01:09;8.50;;;7.70;;
49998;SDS011;68071;45.062;7.356;2023-05-07T09:04:17;8.57;;;7.28;;
49998;SDS011;68071;45.062;7.356;2023-05-07T09:07:21;9.18;;;8.05;;
49998;SDS011;68071;45.062;7.356;2023-05-07T09:10:26;8.05;;;7.25;;
49998;SDS011;68071;45.062;7.356;2023-05-07T09:13:30;8.60;;;7.90;;
49998;SDS011;68071;45.062;7.356;2023-05-07T09:16:36;9.05;;;7.43;;
49998;SDS011;68071;45.062;7.356;2023-05-07T09:19:41;8.75;;;7.93;;
49998;SDS011;68071;45.062;7.356;2023-05-07T09:22:45;8.20;;;7.50;;
49998;SDS011;68071;45.062;7.356;2023-05-07T09:25:53;8.30;;;7.53;;
49998;SDS011;68071;45.062;7.356;2023-05-07T09:29:06;8.45;;;7.65;;
49998;SDS011;68071;45.062;7.356;2023-05-07T09:32:11;8.15;;;7.45;;
49998;SDS011;68071;45.062;7.356;2023-05-07T09:35:16;6.38;;;5.78;;
49998;SDS011;68071;45.062;7.356;2023-05-07T09:38:23;6.18;;;5.57;;
49998;SDS011;68071;45.062;7.356;2023-05-07T09:41:42;6.20;;;5.70;;
49998;SDS011;68071;45.062;7.356;2023-05-07T09:44:52;5.97;;;5.40;;
49998;SDS011;68071;45.062;7.356;2023-05-07T09:48:00;6.03;;;5.45;;
49998;SDS011;68071;45.062;7.356;2023-05-07T09:51:23;6.78;;;6.07;;
49998;SDS011;68071;45.062;7.356;2023-05-07T09:54:35;6.32;;;5.72;;
49998;SDS011;68071;45.062;7.356;2023-05-07T09:57:42;6.05;;;5.45;;
49998;SDS011;68071;45.062;7.356;2023-05-07T10:00:47;6.35;;;5.72;;
49998;SDS011;68071;45.062;7.356;2023-05-07T10:03:54;6.60;;;6.00;;
49998;SDS011;68071;45.062;7.356;2023-05-07T10:06:59;6.93;;;6.25;;
49998;SDS011;68071;45.062;7.356;2023-05-07T10:10:07;6.15;;;5.60;;
49998;SDS011;68071;45.062;7.356;2023-05-07T10:13:16;6.57;;;5.97;;
49998;SDS011;68071;45.062;7.356;2023-05-07T10:16:25;6.40;;;5.82;;
49998;SDS011;68071;45.062;7.356;2023-05-07T10:19:31;7.20;;;6.50;;
49998;SDS011;68071;45.062;7.356;2023-05-07T10:22:45;6.20;;;5.60;;
49998;SDS011;68071;45.062;7.356;2023-05-07T10:25:53;6.93;;;5.57;;
49998;SDS011;68071;45.062;7.356;2023-05-07T10:29:14;6.72;;;5.90;;
49998;SDS011;68071;45.062;7.356;2023-05-07T10:32:39;7.18;;;6.20;;
49998;SDS011;68071;45.062;7.356;2023-05-07T10:35:55;6.70;;;6.07;;
49998;SDS011;68071;45.062;7.356;2023-05-07T10:39:03;6.88;;;6.13;;
49998;SDS011;68071;45.062;7.356;2023-05-07T10:42:10;5.90;;;5.30;;
49998;SDS011;68071;45.062;7.356;2023-05-07T10:45:20;7.32;;;6.03;;
49998;SDS011;68071;45.062;7.356;2023-05-07T10:48:29;6.22;;;5.72;;
49998;SDS011;68071;45.062;7.356;2023-05-07T10:51:40;6.88;;;6.20;;
49998;SDS011;68071;45.062;7.356;2023-05-07T10:55:35;6.28;;;5.63;;
49998;SDS011;68071;45.062;7.356;2023-05-07T10:58:54;7.00;;;6.40;;
49998;SDS011;68071;45.062;7.356;2023-05-07T11:02:04;8.00;;;6.30;;
49998;SDS011;68071;45.062;7.356;2023-05-07T11:05:23;6.60;;;5.82;;
49998;SDS011;68071;45.062;7.356;2023-05-07T11:12:01;7.03;;;6.28;;
49998;SDS011;68071;45.062;7.356;2023-05-07T11:15:38;6.30;;;5.70;;
49998;SDS011;68071;45.062;7.356;2023-05-07T11:18:59;6.22;;;5.72;;
49998;SDS011;68071;45.062;7.356;2023-05-07T11:22:35;6.47;;;5.88;;
49998;SDS011;68071;45.062;7.356;2023-05-07T11:26:05;7.20;;;6.50;;
49998;SDS011;68071;45.062;7.356;2023-05-07T11:29:14;6.93;;;6.32;;
49998;SDS011;68071;45.062;7.356;2023-05-07T11:32:24;6.93;;;6.22;;
49998;SDS011;68071;45.062;7.356;2023-05-07T11:35:31;6.75;;;6.00;;
49998;SDS011;68071;45.062;7.356;2023-05-07T11:38:37;8.23;;;7.18;;
49998;SDS011;68071;45.062;7.356;2023-05-07T11:41:42;6.65;;;6.03;;
49998;SDS011;68071;45.062;7.356;2023-05-07T11:44:46;6.97;;;6.28;;
49998;SDS011;68071;45.062;7.356;2023-05-07T11:47:52;6.60;;;6.00;;
49998;SDS011;68071;45.062;7.356;2023-05-07T11:51:02;7.88;;;7.18;;
49998;SDS011;68071;45.062;7.356;2023-05-07T11:54:15;6.38;;;5.78;;
49998;SDS011;68071;45.062;7.356;2023-05-07T11:57:19;7.35;;;6.68;;
49998;SDS011;68071;45.062;7.356;2023-05-07T12:00:23;6.95;;;6.35;;
49998;SDS011;68071;45.062;7.356;2023-05-07T12:03:27;5.80;;;5.28;;
49998;SDS011;68071;45.062;7.356;2023-05-07T12:06:35;5.83;;;5.13;;
49998;SDS011;68071;45.062;7.356;2023-05-07T12:09:40;5.25;;;4.72;;
49998;SDS011;68071;45.062;7.356;2023-05-07T12:12:45;5.47;;;4.97;;
49998;SDS011;68071;45.062;7.356;2023-05-07T12:15:51;6.63;;;5.53;;
49998;SDS011;68071;45.062;7.356;2023-05-07T12:18:56;5.00;;;4.50;;
49998;SDS011;68071;45.062;7.356;2023-05-07T12:22:03;5.95;;;5.20;;
49998;SDS011;68071;45.062;7.356;2023-05-07T12:25:07;5.18;;;4.65;;
49998;SDS011;68071;45.062;7.356;2023-05-07T12:28:12;5.50;;;5.05;;
49998;SDS011;68071;45.062;7.356;2023-05-07T12:31:19;6.28;;;4.88;;
49998;SDS011;68071;45.062;7.356;2023-05-07T12:34:23;5.32;;;4.75;;
49998;SDS011;68071;45.062;7.356;2023-05-07T12:37:27;5.68;;;5.18;;
49998;SDS011;68071;45.062;7.356;2023-05-07T12:40:41;5.25;;;4.32;;
49998;SDS011;68071;45.062;7.356;2023-05-07T12:43:57;5.03;;;4.45;;
49998;SDS011;68071;45.062;7.356;2023-05-07T12:47:01;7.20;;;4.57;;
49998;SDS011;68071;45.062;7.356;2023-05-07T12:50:06;5.15;;;4.47;;
49998;SDS011;68071;45.062;7.356;2023-05-07T12:53:11;4.18;;;3.78;;
49998;SDS011;68071;45.062;7.356;2023-05-07T12:59:19;3.80;;;3.50;;
49998;SDS011;68071;45.062;7.356;2023-05-07T13:02:34;5.38;;;4.00;;
49998;SDS011;68071;45.062;7.356;2023-05-07T13:05:41;4.30;;;3.63;;
49998;SDS011;68071;45.062;7.356;2023-05-07T13:08:44;4.20;;;3.80;;
49998;SDS011;68071;45.062;7.356;2023-05-07T13:11:48;4.00;;;3.47;;
49998;SDS011;68071;45.062;7.356;2023-05-07T13:18:30;6.22;;;4.85;;
49998;SDS011;68071;45.062;7.356;2023-05-07T13:21:36;5.40;;;4.90;;
49998;SDS011;68071;45.062;7.356;2023-05-07T13:24:40;5.15;;;4.65;;
49998;SDS011;68071;45.062;7.356;2023-05-07T13:27:46;8.95;;;5.00;;
49998;SDS011;68071;45.062;7.356;2023-05-07T13:34:26;5.10;;;4.60;;
49998;SDS011;68071;45.062;7.356;2023-05-07T13:37:30;4.70;;;4.30;;
49998;SDS011;68071;45.062;7.356;2023-05-07T13:40:34;6.75;;;5.05;;
49998;SDS011;68071;45.062;7.356;2023-05-07T13:43:38;5.40;;;4.70;;
49998;SDS011;68071;45.062;7.356;2023-05-07T13:46:43;6.70;;;6.00;;
49998;SDS011;68071;45.062;7.356;2023-05-07T13:49:48;8.10;;;7.15;;
49998;SDS011;68071;45.062;7.356;2023-05-07T13:52:55;9.32;;;8.43;;
49998;SDS011;68071;45.062;7.356;2023-05-07T13:55:59;9.45;;;8.32;;
49998;SDS011;68071;45.062;7.356;2023-05-07T13:59:03;10.30;;;9.32;;
49998;SDS011;68071;45.062;7.356;2023-05-07T14:02:08;11.13;;;10.23;;
49998;SDS011;68071;45.062;7.356;2023-05-07T14:05:13;10.87;;;9.90;;
49998;SDS011;68071;45.062;7.356;2023-05-07T14:08:17;12.20;;;11.05;;
49998;SDS011;68071;45.062;7.356;2023-05-07T14:11:23;11.15;;;10.13;;
49998;SDS011;68071;45.062;7.356;2023-05-07T14:14:27;12.93;;;11.70;;
49998;SDS011;68071;45.062;7.356;2023-05-07T14:17:31;12.85;;;11.25;;
49998;SDS011;68071;45.062;7.356;2023-05-07T14:20:35;12.70;;;11.65;;
49998;SDS011;68071;45.062;7.356;2023-05-07T14:26:45;14.43;;;13.13;;
49998;SDS011;68071;45.062;7.356;2023-05-07T14:29:49;15.00;;;13.60;;
49998;SDS011;68071;45.062;7.356;2023-05-07T14:32:54;16.63;;;15.10;;
49998;SDS011;68071;45.062;7.356;2023-05-07T14:35:58;16.67;;;15.20;;
49998;SDS011;68071;45.062;7.356;2023-05-07T14:39:02;16.83;;;14.75;;
49998;SDS011;68071;45.062;7.356;2023-05-07T14:42:07;17.42;;;15.73;;
49998;SDS011;68071;45.062;7.356;2023-05-07T14:45:11;13.60;;;12.30;;
49998;SDS011;68071;45.062;7.356;2023-05-07T14:48:15;12.02;;;11.02;;
49998;SDS011;68071;45.062;7.356;2023-05-07T14:51:19;16.63;;;15.13;;
49998;SDS011;68071;45.062;7.356;2023-05-07T14:54:24;15.93;;;14.43;;
49998;SDS011;68071;45.062;7.356;2023-05-07T14:57:28;10.55;;;9.65;;
49998;SDS011;68071;45.062;7.356;2023-05-07T15:00:32;9.63;;;8.70;;
49998;SDS011;68071;45.062;7.356;2023-05-07T15:03:37;9.60;;;8.68;;
49998;SDS011;68071;45.062;7.356;2023-05-07T15:06:41;9.13;;;8.32;;
49998;SDS011;68071;45.062;7.356;2023-05-07T15:09:45;10.95;;;9.85;;
49998;SDS011;68071;45.062;7.356;2023-05-07T15:12:49;9.50;;;8.57;;
49998;SDS011;68071;45.062;7.356;2023-05-07T15:15:53;8.82;;;7.93;;
49998;SDS011;68071;45.062;7.356;2023-05-07T15:18:57;8.95;;;7.93;;
49998;SDS011;68071;45.062;7.356;2023-05-07T15:22:01;7.28;;;6.57;;
49998;SDS011;68071;45.062;7.356;2023-05-07T15:25:07;8.15;;;7.45;;
49998;SDS011;68071;45.062;7.356;2023-05-07T15:28:11;8.45;;;7.70;;
49998;SDS011;68071;45.062;7.356;2023-05-07T15:31:15;8.88;;;7.90;;
49998;SDS011;68071;45.062;7.356;2023-05-07T15:34:21;10.32;;;9.38;;
49998;SDS011;68071;45.062;7.356;2023-05-07T15:37:25;8.70;;;8.00;;
49998;SDS011;68071;45.062;7.356;2023-05-07T15:40:29;9.18;;;8.27;;
49998;SDS011;68071;45.062;7.356;2023-05-07T15:43:33;7.22;;;6.50;;
49998;SDS011;68071;45.062;7.356;2023-05-07T15:46:41;5.88;;;5.38;;
49998;SDS011;68071;45.062;7.356;2023-05-07T15:49:45;6.28;;;5.78;;
49998;SDS011;68071;45.062;7.356;2023-05-07T15:52:49;6.53;;;5.93;;
49998;SDS011;68071;45.062;7.356;2023-05-07T15:55:53;5.50;;;5.00;;
49998;SDS011;68071;45.062;7.356;2023-05-07T15:58:57;6.20;;;5.70;;
49998;SDS011;68071;45.062;7.356;2023-05-07T16:02:02;4.53;;;4.13;;
49998;SDS011;68071;45.062;7.356;2023-05-07T16:05:06;5.40;;;4.45;;
49998;SDS011;68071;45.062;7.356;2023-05-07T16:08:15;5.18;;;4.78;;
49998;SDS011;68071;45.062;7.356;2023-05-07T16:11:19;6.13;;;5.60;;
49998;SDS011;68071;45.062;7.356;2023-05-07T16:14:23;5.60;;;5.10;;
49998;SDS011;68071;45.062;7.356;2023-05-07T16:17:27;5.95;;;5.45;;
49998;SDS011;68071;45.062;7.356;2023-05-07T16:20:31;5.57;;;4.90;;
49998;SDS011;68071;45.062;7.356;2023-05-07T16:23:35;5.38;;;4.88;;
49998;SDS011;68071;45.062;7.356;2023-05-07T16:26:39;6.07;;;5.47;;
49998;SDS011;68071;45.062;7.356;2023-05-07T16:29:43;5.15;;;4.72;;
49998;SDS011;68071;45.062;7.356;2023-05-07T16:32:48;5.00;;;4.60;;
49998;SDS011;68071;45.062;7.356;2023-05-07T16:35:52;4.82;;;4.43;;
49998;SDS011;68071;45.062;7.356;2023-05-07T16:38:56;4.20;;;3.80;;
49998;SDS011;68071;45.062;7.356;2023-05-07T16:42:00;4.03;;;3.63;;
49998;SDS011;68071;45.062;7.356;2023-05-07T16:45:05;5.20;;;4.70;;
49998;SDS011;68071;45.062;7.356;2023-05-07T16:48:09;5.23;;;4.83;;
49998;SDS011;68071;45.062;7.356;2023-05-07T16:51:13;4.78;;;4.38;;
49998;SDS011;68071;45.062;7.356;2023-05-07T16:54:17;4.55;;;4.15;;
49998;SDS011;68071;45.062;7.356;2023-05-07T16:57:21;5.32;;;4.70;;
49998;SDS011;68071;45.062;7.356;2023-05-07T17:00:25;5.15;;;4.75;;
49998;SDS011;68071;45.062;7.356;2023-05-07T17:03:29;6.88;;;6.18;;
49998;SDS011;68071;45.062;7.356;2023-05-07T17:06:34;6.18;;;5.47;;
49998;SDS011;68071;45.062;7.356;2023-05-07T17:09:38;5.85;;;5.32;;
49998;SDS011;68071;45.062;7.356;2023-05-07T17:12:43;10.43;;;7.25;;
49998;SDS011;68071;45.062;7.356;2023-05-07T17:15:47;5.93;;;5.53;;
49998;SDS011;68071;45.062;7.356;2023-05-07T17:18:51;5.78;;;5.28;;
49998;SDS011;68071;45.062;7.356;2023-05-07T17:21:56;5.38;;;4.88;;
49998;SDS011;68071;45.062;7.356;2023-05-07T17:24:59;5.65;;;5.15;;
49998;SDS011;68071;45.062;7.356;2023-05-07T17:28:07;6.47;;;5.63;;
49998;SDS011;68071;45.062;7.356;2023-05-07T17:31:13;6.63;;;6.03;;
49998;SDS011;68071;45.062;7.356;2023-05-07T17:34:18;6.38;;;5.78;;
49998;SDS011;68071;45.062;7.356;2023-05-07T17:37:22;5.30;;;4.75;;
49998;SDS011;68071;45.062;7.356;2023-05-07T17:40:26;4.22;;;3.88;;
49998;SDS011;68071;45.062;7.356;2023-05-07T17:43:32;6.82;;;6.32;;
49998;SDS011;68071;45.062;7.356;2023-05-07T17:46:38;4.15;;;3.80;;
49998;SDS011;68071;45.062;7.356;2023-05-07T17:49:42;4.38;;;3.97;;
49998;SDS011;68071;45.062;7.356;2023-05-07T17:52:46;5.13;;;4.72;;
49998;SDS011;68071;45.062;7.356;2023-05-07T17:55:51;5.85;;;5.38;;
49998;SDS011;68071;45.062;7.356;2023-05-07T17:58:55;5.03;;;4.63;;
49998;SDS011;68071;45.062;7.356;2023-05-07T18:01:59;5.50;;;5.00;;
49998;SDS011;68071;45.062;7.356;2023-05-07T18:05:04;6.63;;;6.03;;
49998;SDS011;68071;45.062;7.356;2023-05-07T18:08:09;5.75;;;5.35;;
49998;SDS011;68071;45.062;7.356;2023-05-07T18:11:13;7.32;;;6.72;;
49998;SDS011;68071;45.062;7.356;2023-05-07T18:14:18;7.05;;;4.97;;
49998;SDS011;68071;45.062;7.356;2023-05-07T18:17:26;5.82;;;5.32;;
49998;SDS011;68071;45.062;7.356;2023-05-07T18:20:30;6.15;;;5.55;;
49998;SDS011;68071;45.062;7.356;2023-05-07T18:23:34;6.82;;;6.22;;
49998;SDS011;68071;45.062;7.356;2023-05-07T18:26:39;7.55;;;6.85;;
49998;SDS011;68071;45.062;7.356;2023-05-07T18:29:42;7.32;;;6.70;;
49998;SDS011;68071;45.062;7.356;2023-05-07T18:32:47;7.15;;;6.65;;
49998;SDS011;68071;45.062;7.356;2023-05-07T18:35:51;9.15;;;8.27;;
49998;SDS011;68071;45.062;7.356;2023-05-07T18:38:56;9.30;;;8.40;;
49998;SDS011;68071;45.062;7.356;2023-05-07T18:42:00;9.63;;;8.18;;
49998;SDS011;68071;45.062;7.356;2023-05-07T18:45:08;7.30;;;6.60;;
49998;SDS011;68071;45.062;7.356;2023-05-07T18:48:12;8.73;;;8.02;;
49998;SDS011;68071;45.062;7.356;2023-05-07T18:51:19;7.63;;;7.00;;
49998;SDS011;68071;45.062;7.356;2023-05-07T18:54:23;7.65;;;7.05;;
49998;SDS011;68071;45.062;7.356;2023-05-07T18:57:28;9.43;;;8.63;;
49998;SDS011;68071;45.062;7.356;2023-05-07T19:00:33;9.43;;;8.52;;
49998;SDS011;68071;45.062;7.356;2023-05-07T19:03:37;9.48;;;8.57;;
49998;SDS011;68071;45.062;7.356;2023-05-07T19:06:41;9.02;;;8.32;;
49998;SDS011;68071;45.062;7.356;2023-05-07T19:09:46;7.50;;;6.90;;